createdAt,value
2022-09-25T00:00:55.517Z,0
2022-09-25T00:01:56.459Z,0
2022-09-25T00:02:56.350Z,0
2022-09-25T00:03:55.810Z,0
2022-09-25T00:04:55.995Z,0
2022-09-25T00:05:55.744Z,0
2022-09-25T00:06:55.701Z,0
2022-09-25T00:07:55.946Z,0
2022-09-25T00:08:55.676Z,0
2022-09-25T00:09:56.099Z,0
2022-09-25T00:10:55.847Z,0
2022-09-25T00:11:55.818Z,0
2022-09-25T00:12:55.810Z,0
2022-09-25T00:13:56.051Z,0
2022-09-25T00:14:55.784Z,0
2022-09-25T00:15:55.782Z,0
2022-09-25T00:16:55.835Z,0
2022-09-25T00:17:55.498Z,0
2022-09-25T00:18:55.763Z,0
2022-09-25T00:19:56.085Z,0
2022-09-25T00:20:55.738Z,0
2022-09-25T00:21:55.795Z,0
2022-09-25T00:22:55.708Z,0
2022-09-25T00:23:55.427Z,0
2022-09-25T00:24:55.925Z,0
2022-09-25T00:25:55.646Z,0
2022-09-25T00:26:55.398Z,0
2022-09-25T00:27:55.668Z,0
2022-09-25T00:28:55.633Z,0
2022-09-25T00:29:55.357Z,0
2022-09-25T00:30:55.988Z,0
2022-09-25T00:31:55.616Z,0
2022-09-25T00:32:55.610Z,0
2022-09-25T00:33:55.572Z,0
2022-09-25T00:34:55.321Z,0
2022-09-25T00:35:55.700Z,0
2022-09-25T00:36:55.272Z,0
2022-09-25T00:37:55.806Z,0
2022-09-25T00:38:55.511Z,0
2022-09-25T00:39:55.238Z,0
2022-09-25T00:40:55.794Z,0
2022-09-25T00:41:55.721Z,0
2022-09-25T00:42:55.457Z,0
2022-09-25T00:43:55.443Z,0
2022-09-25T00:44:55.197Z,0
2022-09-25T00:45:55.923Z,0
2022-09-25T00:46:55.662Z,0
2022-09-25T00:47:55.145Z,0
2022-09-25T00:48:55.132Z,0
2022-09-25T00:49:54.873Z,0
2022-09-25T00:50:55.113Z,0
2022-09-25T00:51:59.880Z,0
2022-09-25T00:52:55.342Z,0
2022-09-25T00:53:55.347Z,0
2022-09-25T00:54:55.054Z,0
2022-09-25T00:55:55.300Z,0
2022-09-25T00:56:55.294Z,0
2022-09-25T00:57:55.540Z,0
2022-09-25T00:58:55.528Z,0
2022-09-25T00:59:55.573Z,0
2022-09-25T01:00:55.313Z,0
2022-09-25T01:01:55.243Z,0
2022-09-25T01:02:55.711Z,0
2022-09-25T01:03:55.471Z,0
2022-09-25T01:04:55.758Z,0
2022-09-25T01:05:55.477Z,0
2022-09-25T01:06:55.184Z,0
2022-09-25T01:07:55.241Z,0
2022-09-25T01:08:55.425Z,0
2022-09-25T01:09:55.171Z,0
2022-09-25T01:10:54.876Z,0
2022-09-25T01:11:55.382Z,0
2022-09-25T01:12:54.851Z,0
2022-09-25T01:13:54.845Z,0
2022-09-25T01:14:54.831Z,0
2022-09-25T01:15:54.563Z,0
2022-09-25T01:16:54.849Z,0
2022-09-25T01:17:55.054Z,0
2022-09-25T01:18:54.789Z,0
2022-09-25T01:19:57.545Z,0
2022-09-25T01:20:55.014Z,0
2022-09-25T01:21:55.018Z,0
2022-09-25T01:22:54.747Z,0
2022-09-25T01:23:55.056Z,0
2022-09-25T01:24:54.965Z,0
2022-09-25T01:25:55.240Z,0
2022-09-25T01:26:54.944Z,0
2022-09-25T01:27:55.184Z,0
2022-09-25T01:28:54.667Z,0
2022-09-25T01:29:54.917Z,0
2022-09-25T01:30:55.427Z,0
2022-09-25T01:31:54.641Z,0
2022-09-25T01:32:54.874Z,0
2022-09-25T01:34:26.434Z,0
2022-09-25T01:34:54.856Z,0
2022-09-25T01:35:54.859Z,0
2022-09-25T01:36:54.828Z,0
2022-09-25T01:37:55.709Z,0
2022-09-25T01:38:55.692Z,0
2022-09-25T01:39:55.771Z,0
2022-09-25T01:40:55.841Z,0
2022-09-25T01:41:55.434Z,0
2022-09-25T01:42:55.904Z,0
2022-09-25T01:43:55.636Z,0
2022-09-25T01:44:55.630Z,0
2022-09-25T01:45:55.885Z,0
2022-09-25T01:46:55.337Z,0
2022-09-25T01:47:55.345Z,0
2022-09-25T01:48:55.090Z,0
2022-09-25T01:49:55.311Z,0
2022-09-25T01:50:55.554Z,0
2022-09-25T01:51:57.860Z,0
2022-09-25T01:52:55.780Z,0
2022-09-25T01:53:55.513Z,0
2022-09-25T01:54:55.544Z,0
2022-09-25T01:55:55.580Z,0
2022-09-25T01:56:55.225Z,0
2022-09-25T01:57:55.491Z,0
2022-09-25T01:58:55.196Z,0
2022-09-25T01:59:56.133Z,0
2022-09-25T02:00:56.144Z,0
2022-09-25T02:01:56.150Z,0
2022-09-25T02:02:56.630Z,0
2022-09-25T02:03:56.072Z,0
2022-09-25T02:04:55.798Z,0
2022-09-25T02:05:56.306Z,0
2022-09-25T02:06:56.044Z,0
2022-09-25T02:07:55.770Z,0
2022-09-25T02:08:56.006Z,0
2022-09-25T02:09:56.246Z,0
2022-09-25T02:10:56.243Z,0
2022-09-25T02:11:56.128Z,0
2022-09-25T02:12:55.718Z,0
2022-09-25T02:13:55.713Z,0
2022-09-25T02:14:55.933Z,0
2022-09-25T02:15:55.917Z,0
2022-09-25T02:16:56.179Z,0
2022-09-25T02:17:56.154Z,0
2022-09-25T02:18:56.149Z,0
2022-09-25T02:19:55.608Z,0
2022-09-25T02:20:55.865Z,0
2022-09-25T02:21:55.590Z,0
2022-09-25T02:22:56.103Z,0
2022-09-25T02:23:55.824Z,0
2022-09-25T02:25:01.958Z,0
2022-09-25T02:25:55.535Z,0
2022-09-25T02:26:55.531Z,0
2022-09-25T02:27:56.184Z,0
2022-09-25T02:28:55.760Z,0
2022-09-25T02:29:55.770Z,0
2022-09-25T02:30:56.044Z,0
2022-09-25T02:31:56.032Z,0
2022-09-25T02:32:55.456Z,0
2022-09-25T02:33:55.689Z,0
2022-09-25T02:34:55.684Z,0
2022-09-25T02:35:55.434Z,0
2022-09-25T02:36:55.664Z,0
2022-09-25T02:37:55.389Z,0
2022-09-25T02:38:55.640Z,0
2022-09-25T02:39:55.629Z,0
2022-09-25T02:40:56.317Z,0
2022-09-25T02:41:55.599Z,0
2022-09-25T02:42:55.848Z,0
2022-09-25T02:43:55.725Z,0
2022-09-25T02:44:55.813Z,0
2022-09-25T02:45:55.732Z,0
2022-09-25T02:46:55.277Z,0
2022-09-25T02:47:55.270Z,0
2022-09-25T02:48:55.775Z,0
2022-09-25T02:49:55.499Z,0
2022-09-25T02:50:55.381Z,0
2022-09-25T02:51:55.728Z,0
2022-09-25T02:52:55.716Z,0
2022-09-25T02:53:55.715Z,0
2022-09-25T02:54:55.440Z,0
2022-09-25T02:55:55.174Z,0
2022-09-25T02:56:57.735Z,0
2022-09-25T02:57:55.398Z,0
2022-09-25T02:58:55.384Z,0
2022-09-25T02:59:55.699Z,0
2022-09-25T03:00:55.657Z,0
2022-09-25T03:01:55.845Z,0
2022-09-25T03:02:59.761Z,0
2022-09-25T03:03:55.330Z,0
2022-09-25T03:04:55.058Z,0
2022-09-25T03:05:55.707Z,0
2022-09-25T03:06:55.547Z,0
2022-09-25T03:07:55.013Z,0
2022-09-25T03:08:55.261Z,0
2022-09-25T03:09:54.989Z,0
2022-09-25T03:10:54.973Z,0
2022-09-25T03:11:55.220Z,0
2022-09-25T03:12:55.463Z,0
2022-09-25T03:13:55.188Z,0
2022-09-25T03:14:54.920Z,0
2022-09-25T03:15:55.627Z,0
2022-09-25T03:16:55.449Z,0
2022-09-25T03:17:55.199Z,0
2022-09-25T03:18:55.388Z,0
2022-09-25T03:19:55.116Z,0
2022-09-25T03:20:54.849Z,0
2022-09-25T03:21:55.106Z,0
2022-09-25T03:22:54.565Z,0
2022-09-25T03:23:55.067Z,0
2022-09-25T03:24:54.798Z,0
2022-09-25T03:25:57.172Z,0
2022-09-25T03:26:54.767Z,0
2022-09-25T03:27:54.757Z,0
2022-09-25T03:28:55.280Z,0
2022-09-25T03:29:54.981Z,0
2022-09-25T03:30:55.387Z,0
2022-09-25T03:31:55.127Z,0
2022-09-25T03:32:54.943Z,0
2022-09-25T03:50:09.505Z,0
2022-09-25T03:51:09.045Z,0
2022-09-25T03:52:09.138Z,0
2022-09-25T03:53:08.871Z,0
2022-09-25T03:54:09.639Z,0
2022-09-25T03:55:08.835Z,0
2022-09-25T03:56:08.816Z,0
2022-09-25T03:57:09.059Z,0
2022-09-25T03:58:08.823Z,0
2022-09-25T03:59:09.033Z,0
2022-09-25T04:00:09.024Z,0
2022-09-25T04:01:09.602Z,0
2022-09-25T04:02:09.020Z,0
2022-09-25T04:03:08.970Z,0
2022-09-25T04:04:09.550Z,0
2022-09-25T04:05:08.981Z,0
2022-09-25T04:06:09.314Z,0
2022-09-25T04:07:08.666Z,0
2022-09-25T04:08:08.904Z,0
2022-09-25T04:09:08.636Z,0
2022-09-25T04:10:09.134Z,0
2022-09-25T04:11:08.610Z,0
2022-09-25T04:12:08.598Z,0
2022-09-25T04:13:09.098Z,0
2022-09-25T04:14:09.127Z,0
2022-09-25T04:15:08.809Z,0
2022-09-25T04:16:08.764Z,0
2022-09-25T04:17:09.039Z,0
2022-09-25T04:18:12.685Z,0
2022-09-25T04:19:09.030Z,0
2022-09-25T04:20:09.005Z,0
2022-09-25T04:21:08.227Z,0
2022-09-25T04:22:09.072Z,0
2022-09-25T04:23:08.719Z,0
2022-09-25T04:24:08.740Z,0
2022-09-25T04:25:08.935Z,0
2022-09-25T04:26:08.668Z,0
2022-09-25T04:27:08.932Z,0
2022-09-25T04:28:08.124Z,0
2022-09-25T04:29:08.955Z,0
2022-09-25T04:30:08.619Z,0
2022-09-25T04:31:09.362Z,0
2022-09-25T04:32:08.655Z,4
2022-09-25T04:33:08.578Z,4
2022-09-25T04:34:08.456Z,0
2022-09-25T04:35:08.550Z,4
2022-09-25T04:36:08.273Z,4
2022-09-25T04:37:08.777Z,4
2022-09-25T04:38:08.858Z,4
2022-09-25T04:39:08.240Z,4
2022-09-25T04:40:08.772Z,8
2022-09-25T04:41:08.526Z,8
2022-09-25T04:42:08.721Z,12
2022-09-25T04:43:07.944Z,12
2022-09-25T04:44:08.657Z,12
2022-09-25T04:45:08.678Z,20
2022-09-25T04:46:08.880Z,20
2022-09-25T04:47:08.126Z,24
2022-09-25T04:48:08.118Z,28
2022-09-25T04:49:08.106Z,32
2022-09-25T04:50:08.366Z,40
2022-09-25T04:51:08.335Z,44
2022-09-25T04:52:08.070Z,52
2022-09-25T04:53:08.057Z,56
2022-09-25T04:54:08.817Z,64
2022-09-25T04:55:08.546Z,72
2022-09-25T04:56:15.283Z,88
2022-09-25T04:57:08.004Z,96
2022-09-25T04:58:07.979Z,108
2022-09-25T04:59:07.967Z,120
2022-09-25T05:00:08.215Z,136
2022-09-25T05:01:08.647Z,148
2022-09-25T05:02:08.534Z,160
2022-09-25T05:03:09.452Z,180
2022-09-25T05:04:15.754Z,208
2022-09-25T05:05:08.400Z,224
2022-09-25T05:06:07.881Z,244
2022-09-25T05:07:07.858Z,264
2022-09-25T05:08:08.115Z,276
2022-09-25T05:09:07.829Z,292
2022-09-25T05:10:08.430Z,312
2022-09-25T05:11:08.062Z,332
2022-09-25T05:12:08.046Z,348
2022-09-25T05:13:08.042Z,364
2022-09-25T05:14:08.512Z,376
2022-09-25T05:15:08.306Z,388
2022-09-25T05:16:08.366Z,408
2022-09-25T05:17:08.231Z,436
2022-09-25T05:18:07.717Z,464
2022-09-25T05:19:07.706Z,488
2022-09-25T05:20:07.685Z,504
2022-09-25T05:21:08.189Z,512
2022-09-25T05:22:07.913Z,520
2022-09-25T05:23:07.903Z,540
2022-09-25T05:24:08.226Z,564
2022-09-25T05:25:07.973Z,604
2022-09-25T05:26:08.226Z,648
2022-09-25T05:27:07.843Z,704
2022-09-25T05:28:07.852Z,748
2022-09-25T05:29:07.826Z,784
2022-09-25T05:30:07.553Z,816
2022-09-25T05:31:08.066Z,848
2022-09-25T05:32:07.789Z,852
2022-09-25T05:33:07.252Z,856
2022-09-25T05:34:07.605Z,892
2022-09-25T05:35:07.754Z,948
2022-09-25T05:36:07.526Z,984
2022-09-25T05:37:07.224Z,992
2022-09-25T05:38:07.700Z,1016
2022-09-25T05:39:10.944Z,1064
2022-09-25T05:40:07.797Z,1104
2022-09-25T05:41:07.749Z,1116
2022-09-25T05:42:08.011Z,1100
2022-09-25T05:43:07.383Z,1076
2022-09-25T05:44:07.945Z,1052
2022-09-25T05:45:14.162Z,1024
2022-09-25T05:46:07.659Z,1000
2022-09-25T05:47:07.839Z,968
2022-09-25T05:48:07.590Z,952
2022-09-25T05:49:07.553Z,944
2022-09-25T05:50:07.291Z,948
2022-09-25T05:51:07.546Z,964
2022-09-25T05:52:07.775Z,984
2022-09-25T05:53:07.017Z,1008
2022-09-25T05:54:07.608Z,1024
2022-09-25T05:55:07.749Z,1044
2022-09-25T05:56:07.211Z,1056
2022-09-25T05:57:07.454Z,1080
2022-09-25T05:58:07.990Z,1096
2022-09-25T05:59:06.918Z,1116
2022-09-25T06:00:07.157Z,1144
2022-09-25T06:01:07.402Z,1176
2022-09-25T06:02:07.436Z,1212
2022-09-25T06:03:07.813Z,1260
2022-09-25T06:04:07.393Z,1312
2022-09-25T06:05:07.371Z,1380
2022-09-25T06:06:07.343Z,1464
2022-09-25T06:07:07.324Z,1556
2022-09-25T06:08:07.315Z,1680
2022-09-25T06:09:07.316Z,1812
2022-09-25T06:10:07.314Z,1952
2022-09-25T06:11:07.058Z,2084
2022-09-25T06:12:07.261Z,2200
2022-09-25T06:13:07.518Z,2308
2022-09-25T06:14:07.743Z,2416
2022-09-25T06:15:07.016Z,2532
2022-09-25T06:16:07.246Z,2644
2022-09-25T06:17:07.209Z,2748
2022-09-25T06:18:07.204Z,2856
2022-09-25T06:19:06.676Z,2960
2022-09-25T06:20:08.871Z,3052
2022-09-25T06:21:07.173Z,3132
2022-09-25T06:22:07.144Z,3216
2022-09-25T06:23:06.886Z,3308
2022-09-25T06:24:07.008Z,3396
2022-09-25T06:25:06.859Z,3492
2022-09-25T06:26:07.103Z,3628
2022-09-25T06:27:07.086Z,3764
2022-09-25T06:28:07.075Z,3864
2022-09-25T06:29:10.644Z,3936
2022-09-25T06:30:07.327Z,3996
2022-09-25T06:31:07.093Z,4024
2022-09-25T06:32:07.030Z,4020
2022-09-25T06:33:07.013Z,4012
2022-09-25T06:34:06.917Z,4020
2022-09-25T06:35:07.244Z,4024
2022-09-25T06:36:07.230Z,4028
2022-09-25T06:37:06.454Z,4048
2022-09-25T06:38:07.216Z,4068
2022-09-25T06:39:07.211Z,4104
2022-09-25T06:40:07.195Z,4136
2022-09-25T06:41:07.483Z,4160
2022-09-25T06:42:06.910Z,4168
2022-09-25T06:43:07.151Z,4172
2022-09-25T06:44:06.502Z,4172
2022-09-25T06:45:07.028Z,4188
2022-09-25T06:46:07.478Z,4188
2022-09-25T06:47:07.048Z,4216
2022-09-25T06:48:07.299Z,4264
2022-09-25T06:49:06.775Z,4360
2022-09-25T06:50:07.012Z,4524
2022-09-25T06:51:07.003Z,4716
2022-09-25T06:52:06.991Z,4912
2022-09-25T06:53:06.978Z,5060
2022-09-25T06:54:07.296Z,5100
2022-09-25T06:55:07.478Z,5020
2022-09-25T06:56:07.593Z,4872
2022-09-25T06:57:07.208Z,4700
2022-09-25T06:58:06.926Z,4544
2022-09-25T06:59:06.924Z,4436
2022-09-25T07:00:07.431Z,4420
2022-09-25T07:01:12.745Z,4488
2022-09-25T07:02:08.140Z,4592
2022-09-25T07:03:07.602Z,4700
2022-09-25T07:04:07.173Z,4784
2022-09-25T07:05:07.387Z,4864
2022-09-25T07:06:07.368Z,4940
2022-09-25T07:07:06.574Z,5020
2022-09-25T07:08:07.085Z,5076
2022-09-25T07:09:07.361Z,5156
2022-09-25T07:10:06.901Z,5240
2022-09-25T07:11:06.795Z,5252
2022-09-25T07:12:07.038Z,5340
2022-09-25T07:13:07.292Z,5428
2022-09-25T07:14:06.940Z,5460
2022-09-25T07:15:07.261Z,5436
2022-09-25T07:16:07.695Z,5356
2022-09-25T07:17:07.141Z,5308
2022-09-25T07:18:06.736Z,5252
2022-09-25T07:19:06.968Z,5208
2022-09-25T07:20:06.959Z,5164
2022-09-25T07:21:06.978Z,5116
2022-09-25T07:22:06.686Z,5052
2022-09-25T07:23:06.924Z,4980
2022-09-25T07:24:06.892Z,4900
2022-09-25T07:25:07.205Z,4812
2022-09-25T07:26:06.930Z,4716
2022-09-25T07:27:06.883Z,4584
2022-09-25T07:28:06.870Z,4452
2022-09-25T07:29:06.861Z,4316
2022-09-25T07:30:07.241Z,4220
2022-09-25T07:31:07.303Z,4168
2022-09-25T07:32:07.498Z,4160
2022-09-25T07:33:07.879Z,4180
2022-09-25T07:34:07.365Z,4204
2022-09-25T07:35:07.202Z,4212
2022-09-25T07:36:07.442Z,4212
2022-09-25T07:37:07.430Z,4188
2022-09-25T07:38:07.161Z,4164
2022-09-25T07:39:07.409Z,4148
2022-09-25T07:40:07.654Z,4124
2022-09-25T07:41:07.385Z,4112
2022-09-25T07:42:07.377Z,4104
2022-09-25T07:43:07.401Z,4080
2022-09-25T07:44:49.130Z,4008
2022-09-25T07:45:06.845Z,3996
2022-09-25T07:46:07.982Z,3948
2022-09-25T07:47:07.089Z,3956
2022-09-25T07:48:07.314Z,3996
2022-09-25T07:49:07.635Z,4084
2022-09-25T07:50:09.134Z,4084
2022-09-25T07:51:07.563Z,4132
2022-09-25T07:52:07.277Z,4192
2022-09-25T07:53:07.018Z,4200
2022-09-25T07:54:07.176Z,4120
2022-09-25T07:55:07.506Z,4020
2022-09-25T07:56:12.252Z,4112
2022-09-25T07:57:07.495Z,3944
2022-09-25T07:58:06.975Z,3848
2022-09-25T07:59:07.223Z,3860
2022-09-25T08:00:06.956Z,3856
2022-09-25T08:01:07.588Z,3832
2022-09-25T08:02:07.456Z,3836
2022-09-25T08:03:07.394Z,3724
2022-09-25T08:04:07.090Z,3644
2022-09-25T08:05:07.290Z,3604
2022-09-25T08:06:07.438Z,3532
2022-09-25T08:07:06.883Z,3468
2022-09-25T08:08:07.388Z,3520
2022-09-25T08:09:13.462Z,3628
2022-09-25T08:10:06.869Z,3772
2022-09-25T08:11:07.378Z,3856
2022-09-25T08:12:07.350Z,3980
2022-09-25T08:13:06.828Z,4116
2022-09-25T08:14:07.042Z,4280
2022-09-25T08:15:07.336Z,4432
2022-09-25T08:16:07.156Z,4556
2022-09-25T08:17:07.052Z,4712
2022-09-25T08:18:06.782Z,4852
2022-09-25T08:19:06.779Z,5000
2022-09-25T08:20:06.789Z,5160
2022-09-25T08:21:07.348Z,5296
2022-09-25T08:22:07.027Z,5416
2022-09-25T08:23:06.994Z,5524
2022-09-25T08:24:07.232Z,5652
2022-09-25T08:25:06.966Z,5760
2022-09-25T08:26:06.712Z,5812
2022-09-25T08:27:07.212Z,5800
2022-09-25T08:28:07.209Z,5748
2022-09-25T08:29:06.947Z,5676
2022-09-25T08:30:06.965Z,5604
2022-09-25T08:31:07.469Z,5520
2022-09-25T08:32:06.393Z,5384
2022-09-25T08:33:07.258Z,5172
2022-09-25T08:34:57.756Z,4736
2022-09-25T08:35:07.298Z,4700
2022-09-25T08:36:07.958Z,4492
2022-09-25T08:37:08.278Z,4360
2022-09-25T08:38:08.472Z,4328
2022-09-25T08:39:08.439Z,4392
2022-09-25T08:40:08.519Z,4512
2022-09-25T08:41:08.664Z,4648
2022-09-25T08:42:07.914Z,4756
2022-09-25T08:43:07.897Z,4840
2022-09-25T08:44:07.945Z,4896
2022-09-25T08:45:27.575Z,4992
2022-09-25T08:46:08.732Z,5084
2022-09-25T08:47:07.854Z,5248
2022-09-25T08:48:08.107Z,5444
2022-09-25T08:49:07.607Z,5620
2022-09-25T08:50:07.849Z,5740
2022-09-25T08:51:08.078Z,5772
2022-09-25T08:52:08.077Z,5736
2022-09-25T08:53:08.388Z,5620
2022-09-25T08:54:08.467Z,5464
2022-09-25T08:55:07.793Z,5288
2022-09-25T08:56:07.792Z,5112
2022-09-25T08:57:07.771Z,4940
2022-09-25T08:58:08.021Z,4776
2022-09-25T08:59:08.013Z,4580
2022-09-25T09:00:09.797Z,4376
2022-09-25T09:01:08.600Z,4204
2022-09-25T09:02:08.010Z,4072
2022-09-25T09:03:07.766Z,3980
2022-09-25T09:04:08.121Z,3908
2022-09-25T09:05:08.216Z,3832
2022-09-25T09:06:07.691Z,3736
2022-09-25T09:07:33.313Z,3540
2022-09-25T09:08:07.430Z,3460
2022-09-25T09:09:08.008Z,3344
2022-09-25T09:10:08.199Z,3236
2022-09-25T09:11:13.532Z,3148
2022-09-25T09:12:07.642Z,3072
2022-09-25T09:13:07.899Z,3028
2022-09-25T09:14:07.876Z,3012
2022-09-25T09:15:07.615Z,3052
2022-09-25T09:16:08.408Z,3104
2022-09-25T09:17:08.122Z,3172
2022-09-25T09:18:07.591Z,3244
2022-09-25T09:19:08.099Z,3264
2022-09-25T09:20:07.576Z,3248
2022-09-25T09:21:07.824Z,3232
2022-09-25T09:22:08.639Z,3236
2022-09-25T09:23:11.071Z,3172
2022-09-25T09:24:07.920Z,3140
2022-09-25T09:25:08.128Z,3152
2022-09-25T09:26:07.810Z,3168
2022-09-25T09:27:08.036Z,3228
2022-09-25T09:28:07.501Z,3280
2022-09-25T09:29:07.769Z,3340
2022-09-25T09:30:12.335Z,3416
2022-09-25T09:31:07.771Z,3476
2022-09-25T09:32:07.799Z,3548
2022-09-25T09:33:07.467Z,3608
2022-09-25T09:34:08.102Z,3696
2022-09-25T09:35:13.673Z,3804
2022-09-25T09:36:07.705Z,3908
2022-09-25T09:37:07.720Z,4060
2022-09-25T09:38:07.420Z,4248
2022-09-25T09:39:07.674Z,4384
2022-09-25T09:40:07.657Z,4496
2022-09-25T09:41:07.718Z,4560
2022-09-25T09:42:08.016Z,4616
2022-09-25T09:43:07.888Z,4556
2022-09-25T09:44:07.666Z,4520
2022-09-25T09:45:07.881Z,4448
2022-09-25T09:46:08.220Z,4376
2022-09-25T09:47:07.608Z,4364
2022-09-25T09:48:07.332Z,4372
2022-09-25T09:49:07.578Z,4420
2022-09-25T09:50:07.829Z,4492
2022-09-25T09:51:07.405Z,4588
2022-09-25T09:52:07.315Z,4676
2022-09-25T09:53:07.561Z,4820
2022-09-25T09:54:07.369Z,4972
2022-09-25T09:55:07.273Z,5192
2022-09-25T09:56:11.309Z,5764
2022-09-25T09:57:07.824Z,5696
2022-09-25T09:58:07.525Z,5824
2022-09-25T09:59:07.239Z,5828
2022-09-25T10:00:12.239Z,5732
2022-09-25T10:01:59.153Z,5544
2022-09-25T10:02:09.757Z,5528
2022-09-25T10:03:09.184Z,5400
2022-09-25T10:04:09.329Z,5184
2022-09-25T10:05:09.040Z,4992
2022-09-25T10:06:09.290Z,4844
2022-09-25T10:07:09.017Z,4712
2022-09-25T10:08:08.764Z,4428
2022-09-25T10:09:09.000Z,4244
2022-09-25T10:10:08.752Z,4140
2022-09-25T10:11:08.726Z,4108
2022-09-25T10:12:08.772Z,4096
2022-09-25T10:13:13.379Z,4136
2022-09-25T10:14:09.467Z,4196
2022-09-25T10:15:08.702Z,4260
2022-09-25T10:16:08.676Z,4324
2022-09-25T10:17:08.682Z,4404
2022-09-25T10:18:08.938Z,4424
2022-09-25T10:19:09.184Z,4384
2022-09-25T10:20:08.660Z,4356
2022-09-25T10:21:08.924Z,4320
2022-09-25T10:22:08.387Z,4288
2022-09-25T10:23:13.178Z,4212
2022-09-25T10:24:09.209Z,4032
2022-09-25T10:25:09.309Z,3856
2022-09-25T10:26:11.828Z,3788
2022-09-25T10:27:08.652Z,3800
2022-09-25T10:28:09.280Z,3804
2022-09-25T10:29:09.190Z,3836
2022-09-25T10:30:08.920Z,3868
2022-09-25T10:31:09.172Z,3884
2022-09-25T10:32:08.615Z,3892
2022-09-25T10:33:08.930Z,3788
2022-09-25T10:34:08.944Z,3620
2022-09-25T10:35:08.851Z,3548
2022-09-25T10:36:08.842Z,3708
2022-09-25T10:37:09.080Z,4104
2022-09-25T10:38:09.077Z,4460
2022-09-25T10:39:54.405Z,4820
2022-09-25T10:40:08.707Z,4852
2022-09-25T10:41:08.807Z,5000
2022-09-25T10:42:08.536Z,5036
2022-09-25T10:43:09.044Z,4996
2022-09-25T10:44:08.879Z,5020
2022-09-25T10:45:09.078Z,5196
2022-09-25T10:46:09.112Z,5464
2022-09-25T10:47:09.018Z,5768
2022-09-25T10:48:08.493Z,6096
2022-09-25T10:49:08.531Z,6452
2022-09-25T10:50:08.773Z,6736
2022-09-25T10:51:08.750Z,6936
2022-09-25T10:52:08.472Z,7096
2022-09-25T10:53:08.712Z,7244
2022-09-25T10:54:08.959Z,7424
2022-09-25T10:55:08.709Z,7624
2022-09-25T10:56:08.558Z,7928
2022-09-25T10:57:08.431Z,8236
2022-09-25T10:58:08.408Z,8544
2022-09-25T10:59:08.778Z,8852
2022-09-25T11:00:08.253Z,9084
2022-09-25T11:01:09.290Z,9176
2022-09-25T11:02:09.124Z,9148
2022-09-25T11:03:12.388Z,8952
2022-09-25T11:04:08.621Z,8864
2022-09-25T11:05:08.102Z,8884
2022-09-25T11:06:08.616Z,8984
2022-09-25T11:07:08.385Z,9144
2022-09-25T11:08:08.343Z,9272
2022-09-25T11:09:08.453Z,9288
2022-09-25T11:10:08.619Z,9188
2022-09-25T11:11:08.848Z,9112
2022-09-25T11:12:08.306Z,9100
2022-09-25T11:13:08.563Z,8888
2022-09-25T11:14:08.290Z,8548
2022-09-25T11:15:08.290Z,8272
2022-09-25T11:16:08.810Z,8140
2022-09-25T11:17:09.468Z,8084
2022-09-25T11:18:08.379Z,8072
2022-09-25T11:19:19.651Z,8028
2022-09-25T11:20:08.832Z,7988
2022-09-25T11:21:08.757Z,7972
2022-09-25T11:22:08.566Z,8004
2022-09-25T11:23:08.508Z,8112
2022-09-25T11:24:08.551Z,8196
2022-09-25T11:25:08.594Z,8320
2022-09-25T11:26:08.815Z,8428
2022-09-25T11:27:08.483Z,8472
2022-09-25T11:28:08.475Z,8472
2022-09-25T11:29:08.242Z,8496
2022-09-25T11:30:08.214Z,8552
2022-09-25T11:31:08.989Z,8632
2022-09-25T11:32:08.544Z,8676
2022-09-25T11:33:08.474Z,8696
2022-09-25T11:34:08.703Z,8752
2022-09-25T11:35:08.474Z,8792
2022-09-25T11:36:08.458Z,8860
2022-09-25T11:37:07.905Z,8868
2022-09-25T11:38:12.281Z,8836
2022-09-25T11:39:08.628Z,8792
2022-09-25T11:40:08.215Z,8664
2022-09-25T11:41:08.363Z,8424
2022-09-25T11:42:08.613Z,8048
2022-09-25T11:43:08.607Z,7720
2022-09-25T11:44:08.343Z,7556
2022-09-25T11:45:08.359Z,7532
2022-09-25T11:46:08.585Z,7564
2022-09-25T11:47:08.383Z,7676
2022-09-25T11:48:08.172Z,7740
2022-09-25T11:49:15.109Z,7624
2022-09-25T11:50:08.586Z,7552
2022-09-25T11:51:08.698Z,7648
2022-09-25T11:52:08.630Z,7816
2022-09-25T11:53:08.871Z,7840
2022-09-25T11:54:40.525Z,7880
2022-09-25T11:55:08.596Z,7900
2022-09-25T11:56:08.855Z,7876
2022-09-25T11:57:08.604Z,7856
2022-09-25T11:58:08.840Z,7968
2022-09-25T11:59:08.833Z,8272
2022-09-25T12:00:09.093Z,8564
2022-09-25T12:01:08.673Z,8636
2022-09-25T12:02:08.742Z,8620
2022-09-25T12:03:08.812Z,8520
2022-09-25T12:04:08.825Z,8424
2022-09-25T12:05:09.100Z,8316
2022-09-25T12:06:08.654Z,8268
2022-09-25T12:07:08.270Z,8400
2022-09-25T12:08:08.793Z,8684
2022-09-25T12:09:08.772Z,8840
2022-09-25T12:10:08.791Z,8844
2022-09-25T12:11:08.770Z,8784
2022-09-25T12:12:08.770Z,8724
2022-09-25T12:13:08.749Z,8440
2022-09-25T12:14:08.829Z,8060
2022-09-25T12:15:08.490Z,7820
2022-09-25T12:16:09.634Z,7676
2022-09-25T12:17:08.731Z,7640
2022-09-25T12:18:08.724Z,7740
2022-09-25T12:19:08.722Z,7928
2022-09-25T12:20:08.323Z,8248
2022-09-25T12:21:08.840Z,8660
2022-09-25T12:22:08.471Z,8944
2022-09-25T12:23:08.959Z,9144
2022-09-25T12:24:08.787Z,9344
2022-09-25T12:25:08.943Z,9384
2022-09-25T12:26:08.688Z,9216
2022-09-25T12:27:08.414Z,9052
2022-09-25T12:28:08.933Z,8964
2022-09-25T12:29:08.660Z,8804
2022-09-25T12:30:08.924Z,8736
2022-09-25T12:31:13.003Z,8784
2022-09-25T12:32:08.895Z,8792
2022-09-25T12:33:08.387Z,8820
2022-09-25T12:34:08.950Z,8820
2022-09-25T12:35:08.888Z,8636
2022-09-25T12:36:08.387Z,8464
2022-09-25T12:37:09.033Z,8312
2022-09-25T12:38:08.887Z,8236
2022-09-25T12:39:08.605Z,8132
2022-09-25T12:40:08.928Z,8080
2022-09-25T12:41:08.594Z,8120
2022-09-25T12:42:08.576Z,8272
2022-09-25T12:43:08.588Z,8472
2022-09-25T12:44:08.152Z,8608
2022-09-25T12:45:08.569Z,8696
2022-09-25T12:46:08.288Z,8584
2022-09-25T12:47:08.299Z,8296
2022-09-25T12:48:08.802Z,8020
2022-09-25T12:49:08.543Z,7940
2022-09-25T12:50:08.288Z,7940
2022-09-25T12:51:12.013Z,7848
2022-09-25T12:52:08.525Z,7768
2022-09-25T12:53:08.831Z,7856
2022-09-25T12:54:08.886Z,7900
2022-09-25T12:55:07.999Z,7896
2022-09-25T12:56:08.776Z,7960
2022-09-25T12:57:09.546Z,8156
2022-09-25T12:58:09.524Z,8340
2022-09-25T12:59:09.003Z,8436
2022-09-25T13:00:09.556Z,8468
2022-09-25T13:01:09.441Z,8520
2022-09-25T13:02:10.053Z,8568
2022-09-25T13:03:09.756Z,8632
2022-09-25T13:04:10.091Z,8424
2022-09-25T13:05:09.489Z,8320
2022-09-25T13:06:09.742Z,8296
2022-09-25T13:07:09.508Z,8368
2022-09-25T13:08:09.472Z,8420
2022-09-25T13:09:09.510Z,8368
2022-09-25T13:10:09.746Z,8192
2022-09-25T13:11:09.453Z,8180
2022-09-25T13:12:09.191Z,8464
2022-09-25T13:13:15.839Z,8596
2022-09-25T13:14:09.985Z,8508
2022-09-25T13:15:09.429Z,8508
2022-09-25T13:16:09.694Z,8436
2022-09-25T13:17:09.165Z,8276
2022-09-25T13:18:09.158Z,8172
2022-09-25T13:19:09.662Z,7888
2022-09-25T13:20:09.398Z,7572
2022-09-25T13:21:09.142Z,7312
2022-09-25T13:22:08.914Z,7036
2022-09-25T13:23:09.669Z,6480
2022-09-25T13:24:09.258Z,6252
2022-09-25T13:25:09.494Z,5948
2022-09-25T13:26:09.659Z,5976
2022-09-25T13:27:09.225Z,6028
2022-09-25T13:28:09.642Z,6088
2022-09-25T13:29:09.346Z,5960
2022-09-25T13:30:09.523Z,5704
2022-09-25T13:31:16.150Z,5432
2022-09-25T13:32:09.337Z,5104
2022-09-25T13:33:09.084Z,4828
2022-09-25T13:34:09.776Z,4716
2022-09-25T13:35:09.126Z,4876
2022-09-25T13:36:09.575Z,5044
2022-09-25T13:37:09.309Z,5188
2022-09-25T13:38:09.557Z,5256
2022-09-25T13:39:09.064Z,5372
2022-09-25T13:40:09.491Z,5380
2022-09-25T13:41:09.633Z,5432
2022-09-25T13:42:09.396Z,5524
2022-09-25T13:43:09.534Z,5472
2022-09-25T13:44:09.135Z,5332
2022-09-25T13:45:09.523Z,5396
2022-09-25T13:46:09.206Z,5648
2022-09-25T13:47:08.747Z,5828
2022-09-25T13:48:13.581Z,5920
2022-09-25T13:49:09.280Z,5972
2022-09-25T13:50:09.042Z,5988
2022-09-25T13:51:09.227Z,5912
2022-09-25T13:52:09.482Z,5732
2022-09-25T13:53:08.960Z,5560
2022-09-25T13:54:09.242Z,5272
2022-09-25T13:55:09.235Z,4876
2022-09-25T13:56:09.451Z,4516
2022-09-25T13:57:09.590Z,4236
2022-09-25T13:58:09.466Z,4044
2022-09-25T13:59:09.278Z,3952
2022-09-25T14:00:09.244Z,4060
2022-09-25T14:01:09.579Z,4420
2022-09-25T14:02:09.111Z,4452
2022-09-25T14:03:09.405Z,4352
2022-09-25T14:04:08.640Z,4288